sensor_id;sensor_type;location;lat;lon;timestamp;pressure;altitude;pressure_sealevel;temperature;humidity
13235;BME280;6683;48.506;9.050;2023-02-13T05:20:33;100088.53;;;1.54;66.88
13235;BME280;6683;48.506;9.050;2023-02-13T05:23:37;100094.63;;;1.53;66.50
13235;BME280;6683;48.506;9.050;2023-02-13T05:26:39;100087.66;;;1.53;66.54
13235;BME280;6683;48.506;9.050;2023-02-13T05:29:41;100092.03;;;1.53;66.69
13235;BME280;6683;48.506;9.050;2023-02-13T05:32:43;100090.28;;;1.53;66.48
13235;BME280;6683;48.506;9.050;2023-02-13T05:35:47;100087.66;;;1.53;66.86
13235;BME280;6683;48.506;9.050;2023-02-13T05:38:50;100086.81;;;1.53;66.71
13235;BME280;6683;48.506;9.050;2023-02-13T05:41:52;100088.59;;;1.52;66.54
13235;BME280;6683;48.506;9.050;2023-02-13T05:44:55;100092.22;;;1.50;66.15
13235;BME280;6683;48.506;9.050;2023-02-13T05:47:58;100085.56;;;1.44;66.11
13235;BME280;6683;48.506;9.050;2023-02-13T05:51:02;100090.94;;;1.41;66.45
13235;BME280;6683;48.506;9.050;2023-02-13T05:54:05;100089.44;;;1.37;66.21
13235;BME280;6683;48.506;9.050;2023-02-13T05:57:07;100087.06;;;1.33;66.24
13235;BME280;6683;48.506;9.050;2023-02-13T06:00:11;100089.00;;;1.29;66.32
13235;BME280;6683;48.506;9.050;2023-02-13T06:03:14;100096.88;;;1.28;66.64
13235;BME280;6683;48.506;9.050;2023-02-13T06:06:18;100084.97;;;1.24;66.63
13235;BME280;6683;48.506;9.050;2023-02-13T06:09:21;100089.25;;;1.25;66.55
13235;BME280;6683;48.506;9.050;2023-02-13T06:12:25;100088.50;;;1.23;66.19
13235;BME280;6683;48.506;9.050;2023-02-13T06:15:28;100098.16;;;1.21;66.27
13235;BME280;6683;48.506;9.050;2023-02-13T06:18:31;100096.63;;;1.17;66.27
13235;BME280;6683;48.506;9.050;2023-02-13T06:21:34;100103.66;;;1.15;66.39
13235;BME280;6683;48.506;9.050;2023-02-13T06:24:38;100107.03;;;1.17;66.58
13235;BME280;6683;48.506;9.050;2023-02-13T06:27:41;100105.25;;;1.17;66.47
13235;BME280;6683;48.506;9.050;2023-02-13T06:30:44;100103.34;;;1.21;66.80
13235;BME280;6683;48.506;9.050;2023-02-13T06:33:46;100106.69;;;1.23;66.76
13235;BME280;6683;48.506;9.050;2023-02-13T06:36:50;100105.75;;;1.24;66.75
13235;BME280;6683;48.506;9.050;2023-02-13T06:39:53;100112.56;;;1.26;66.82
13235;BME280;6683;48.506;9.050;2023-02-13T06:42:55;100110.63;;;1.30;66.75
13235;BME280;6683;48.506;9.050;2023-02-13T06:45:57;100112.25;;;1.32;66.70
13235;BME280;6683;48.506;9.050;2023-02-13T06:49:00;100116.34;;;1.36;66.67
13235;BME280;6683;48.506;9.050;2023-02-13T06:52:04;100116.13;;;1.41;66.74
13235;BME280;6683;48.506;9.050;2023-02-13T06:55:07;100115.03;;;1.45;66.88
13235;BME280;6683;48.506;9.050;2023-02-13T06:58:09;100120.84;;;1.50;66.64
13235;BME280;6683;48.506;9.050;2023-02-13T07:01:12;100117.19;;;1.52;66.85
13235;BME280;6683;48.506;9.050;2023-02-13T07:04:15;100117.81;;;1.57;66.95
13235;BME280;6683;48.506;9.050;2023-02-13T07:07:19;100122.78;;;1.62;66.92
13235;BME280;6683;48.506;9.050;2023-02-13T07:10:21;100124.28;;;1.66;66.75
13235;BME280;6683;48.506;9.050;2023-02-13T07:13:24;100125.78;;;1.70;66.88
13235;BME280;6683;48.506;9.050;2023-02-13T07:16:27;100124.84;;;1.71;67.06
13235;BME280;6683;48.506;9.050;2023-02-13T07:19:30;100122.00;;;1.76;66.94
13235;BME280;6683;48.506;9.050;2023-02-13T07:22:34;100132.25;;;1.79;66.90
13235;BME280;6683;48.506;9.050;2023-02-13T07:25:37;100131.91;;;1.85;67.05
13235;BME280;6683;48.506;9.050;2023-02-13T07:28:39;100135.94;;;1.90;67.07
13235;BME280;6683;48.506;9.050;2023-02-13T07:31:42;100136.63;;;1.94;67.11
13235;BME280;6683;48.506;9.050;2023-02-13T07:34:44;100142.50;;;1.97;67.08
13235;BME280;6683;48.506;9.050;2023-02-13T07:37:48;100134.59;;;1.99;66.91
13235;BME280;6683;48.506;9.050;2023-02-13T07:40:51;100135.34;;;2.01;67.05
13235;BME280;6683;48.506;9.050;2023-02-13T07:43:53;100134.34;;;2.03;66.96
13235;BME280;6683;48.506;9.050;2023-02-13T07:46:56;100138.53;;;2.06;67.18
13235;BME280;6683;48.506;9.050;2023-02-13T07:49:58;100140.06;;;2.10;67.07
13235;BME280;6683;48.506;9.050;2023-02-13T07:53:02;100142.41;;;2.14;67.10
13235;BME280;6683;48.506;9.050;2023-02-13T07:56:05;100142.47;;;2.13;66.96
13235;BME280;6683;48.506;9.050;2023-02-13T07:59:09;100139.72;;;2.16;67.07
13235;BME280;6683;48.506;9.050;2023-02-13T08:02:12;100142.91;;;2.21;67.06
13235;BME280;6683;48.506;9.050;2023-02-13T08:05:15;100143.47;;;2.26;67.47
13235;BME280;6683;48.506;9.050;2023-02-13T08:08:19;100152.88;;;2.28;66.98
13235;BME280;6683;48.506;9.050;2023-02-13T08:11:31;100149.38;;;2.29;66.96
13235;BME280;6683;48.506;9.050;2023-02-13T08:14:52;100150.03;;;2.33;67.20
13235;BME280;6683;48.506;9.050;2023-02-13T08:17:55;100150.69;;;2.36;67.00
13235;BME280;6683;48.506;9.050;2023-02-13T08:20:58;100153.88;;;2.41;67.64
13235;BME280;6683;48.506;9.050;2023-02-13T08:24:04;100146.63;;;2.47;67.26
13235;BME280;6683;48.506;9.050;2023-02-13T08:31:23;100149.28;;;2.61;67.41
13235;BME280;6683;48.506;9.050;2023-02-13T08:34:25;100150.78;;;2.65;67.17
13235;BME280;6683;48.506;9.050;2023-02-13T08:37:28;100140.81;;;2.71;67.51
13235;BME280;6683;48.506;9.050;2023-02-13T08:40:32;100148.97;;;2.81;67.29
13235;BME280;6683;48.506;9.050;2023-02-13T08:43:35;100141.69;;;2.86;67.52
13235;BME280;6683;48.506;9.050;2023-02-13T08:46:38;100145.72;;;2.91;67.10
13235;BME280;6683;48.506;9.050;2023-02-13T08:49:40;100146.25;;;2.96;67.24
13235;BME280;6683;48.506;9.050;2023-02-13T08:52:43;100146.75;;;3.03;67.48
13235;BME280;6683;48.506;9.050;2023-02-13T08:55:52;100131.66;;;3.08;67.65
13235;BME280;6683;48.506;9.050;2023-02-13T08:58:55;100131.88;;;3.19;67.47
13235;BME280;6683;48.506;9.050;2023-02-13T09:01:57;100141.66;;;3.30;67.39
13235;BME280;6683;48.506;9.050;2023-02-13T09:05:00;100127.28;;;3.37;67.58
13235;BME280;6683;48.506;9.050;2023-02-13T09:08:03;100134.56;;;3.46;67.03
13235;BME280;6683;48.506;9.050;2023-02-13T09:11:08;100127.94;;;3.54;66.76
13235;BME280;6683;48.506;9.050;2023-02-13T09:14:11;100123.81;;;3.64;66.99
13235;BME280;6683;48.506;9.050;2023-02-13T09:17:14;100117.25;;;3.71;66.84
13235;BME280;6683;48.506;9.050;2023-02-13T09:20:19;100116.97;;;3.76;67.09
13235;BME280;6683;48.506;9.050;2023-02-13T09:23:22;100114.28;;;3.77;66.81
13235;BME280;6683;48.506;9.050;2023-02-13T09:26:26;100118.16;;;3.84;67.35
13235;BME280;6683;48.506;9.050;2023-02-13T09:29:28;100113.28;;;3.92;67.46
13235;BME280;6683;48.506;9.050;2023-02-13T09:32:33;100111.84;;;4.01;67.44
13235;BME280;6683;48.506;9.050;2023-02-13T09:35:37;100114.91;;;4.07;66.92
13235;BME280;6683;48.506;9.050;2023-02-13T09:38:42;100106.38;;;4.18;67.05
13235;BME280;6683;48.506;9.050;2023-02-13T09:41:48;100110.06;;;4.28;67.28
13235;BME280;6683;48.506;9.050;2023-02-13T09:44:56;100107.72;;;4.38;67.32
13235;BME280;6683;48.506;9.050;2023-02-13T09:47:59;100107.63;;;4.52;67.50
13235;BME280;6683;48.506;9.050;2023-02-13T09:51:03;100109.31;;;4.65;67.53
13235;BME280;6683;48.506;9.050;2023-02-13T09:54:07;100108.28;;;4.80;66.78
13235;BME280;6683;48.506;9.050;2023-02-13T09:57:18;100105.69;;;4.93;67.24
13235;BME280;6683;48.506;9.050;2023-02-13T10:00:29;100105.81;;;5.04;67.04
13235;BME280;6683;48.506;9.050;2023-02-13T10:03:41;100107.69;;;5.15;66.74
13235;BME280;6683;48.506;9.050;2023-02-13T10:06:49;100109.75;;;5.22;67.34
13235;BME280;6683;48.506;9.050;2023-02-13T10:10:00;100110.72;;;5.34;67.28
13235;BME280;6683;48.506;9.050;2023-02-13T10:13:22;100113.81;;;5.39;66.56
13235;BME280;6683;48.506;9.050;2023-02-13T10:16:35;100109.72;;;5.47;66.99
13235;BME280;6683;48.506;9.050;2023-02-13T10:19:42;100107.09;;;5.60;66.99
13235;BME280;6683;48.506;9.050;2023-02-13T10:22:50;100112.28;;;5.73;67.02
13235;BME280;6683;48.506;9.050;2023-02-13T10:25:57;100111.84;;;5.79;66.64
13235;BME280;6683;48.506;9.050;2023-02-13T10:29:06;100111.53;;;5.83;66.60
13235;BME280;6683;48.506;9.050;2023-02-13T10:32:43;100107.78;;;5.87;66.18
13235;BME280;6683;48.506;9.050;2023-02-13T10:35:55;100103.06;;;5.92;66.85
13235;BME280;6683;48.506;9.050;2023-02-13T10:39:17;100103.94;;;6.04;66.92
13235;BME280;6683;48.506;9.050;2023-02-13T10:42:29;100114.97;;;6.20;66.88
13235;BME280;6683;48.506;9.050;2023-02-13T10:46:10;100107.03;;;6.32;66.79
13235;BME280;6683;48.506;9.050;2023-02-13T10:49:42;100093.03;;;6.44;66.98
13235;BME280;6683;48.506;9.050;2023-02-13T10:52:56;100093.47;;;6.73;66.94
13235;BME280;6683;48.506;9.050;2023-02-13T10:56:19;100088.41;;;7.16;66.84
13235;BME280;6683;48.506;9.050;2023-02-13T10:59:43;100087.19;;;7.64;66.03
13235;BME280;6683;48.506;9.050;2023-02-13T11:02:49;100082.06;;;8.05;65.74
13235;BME280;6683;48.506;9.050;2023-02-13T11:05:54;100071.97;;;8.53;65.49
13235;BME280;6683;48.506;9.050;2023-02-13T11:08:57;100065.38;;;9.40;64.53
13235;BME280;6683;48.506;9.050;2023-02-13T11:12:23;100055.56;;;10.49;63.71
13235;BME280;6683;48.506;9.050;2023-02-13T11:15:29;100050.88;;;11.35;62.59
13235;BME280;6683;48.506;9.050;2023-02-13T11:18:36;100062.84;;;12.11;61.90
13235;BME280;6683;48.506;9.050;2023-02-13T11:21:39;100052.97;;;12.74;60.91
13235;BME280;6683;48.506;9.050;2023-02-13T11:24:51;100044.38;;;13.65;60.27
13235;BME280;6683;48.506;9.050;2023-02-13T11:28:07;100028.22;;;14.73;58.90
13235;BME280;6683;48.506;9.050;2023-02-13T11:31:21;100033.75;;;15.73;57.67
13235;BME280;6683;48.506;9.050;2023-02-13T11:34:28;100028.75;;;16.54;56.22
13235;BME280;6683;48.506;9.050;2023-02-13T11:37:31;100019.91;;;17.34;54.55
13235;BME280;6683;48.506;9.050;2023-02-13T11:40:34;100021.44;;;18.08;53.05
13235;BME280;6683;48.506;9.050;2023-02-13T11:43:45;100006.28;;;18.58;51.58
13235;BME280;6683;48.506;9.050;2023-02-13T11:46:50;100001.16;;;18.90;51.20
13235;BME280;6683;48.506;9.050;2023-02-13T11:49:54;99993.25;;;19.44;50.07
13235;BME280;6683;48.506;9.050;2023-02-13T11:52:58;99998.78;;;19.83;49.24
13235;BME280;6683;48.506;9.050;2023-02-13T11:56:10;99997.19;;;20.09;48.51
13235;BME280;6683;48.506;9.050;2023-02-13T11:59:13;99989.75;;;20.04;48.48
13235;BME280;6683;48.506;9.050;2023-02-13T12:02:19;99993.47;;;20.10;48.27
13235;BME280;6683;48.506;9.050;2023-02-13T12:05:26;99984.88;;;20.27;47.25
13235;BME280;6683;48.506;9.050;2023-02-13T12:08:29;99982.97;;;20.15;47.47
13235;BME280;6683;48.506;9.050;2023-02-13T12:11:39;99986.94;;;20.45;47.05
13235;BME280;6683;48.506;9.050;2023-02-13T12:14:44;99974.53;;;20.63;46.73
13235;BME280;6683;48.506;9.050;2023-02-13T12:18:03;99979.22;;;20.03;47.11
13235;BME280;6683;48.506;9.050;2023-02-13T12:21:24;99981.47;;;19.79;47.92
13235;BME280;6683;48.506;9.050;2023-02-13T12:28:11;99980.56;;;20.46;46.64
13235;BME280;6683;48.506;9.050;2023-02-13T12:31:41;99977.00;;;20.78;46.04
13235;BME280;6683;48.506;9.050;2023-02-13T12:35:18;99978.63;;;20.99;45.43
13235;BME280;6683;48.506;9.050;2023-02-13T12:38:52;99968.88;;;21.17;44.77
13235;BME280;6683;48.506;9.050;2023-02-13T12:42:19;99958.97;;;21.18;44.29
13235;BME280;6683;48.506;9.050;2023-02-13T12:45:33;99959.78;;;21.31;43.38
13235;BME280;6683;48.506;9.050;2023-02-13T12:48:44;99958.44;;;21.47;43.79
13235;BME280;6683;48.506;9.050;2023-02-13T12:52:03;99957.84;;;21.38;42.66
13235;BME280;6683;48.506;9.050;2023-02-13T12:55:50;99952.06;;;21.41;42.63
13235;BME280;6683;48.506;9.050;2023-02-13T12:59:08;99943.88;;;21.23;42.29
13235;BME280;6683;48.506;9.050;2023-02-13T13:02:47;99947.88;;;20.03;43.32
13235;BME280;6683;48.506;9.050;2023-02-13T13:06:09;99948.50;;;18.35;45.57
13235;BME280;6683;48.506;9.050;2023-02-13T13:09:48;99945.56;;;16.88;48.21
13235;BME280;6683;48.506;9.050;2023-02-13T13:13:02;99946.38;;;15.76;49.82
13235;BME280;6683;48.506;9.050;2023-02-13T13:16:16;99942.25;;;14.96;51.42
13235;BME280;6683;48.506;9.050;2023-02-13T13:19:29;99943.91;;;14.34;52.41
13235;BME280;6683;48.506;9.050;2023-02-13T13:22:40;99945.38;;;13.81;53.59
13235;BME280;6683;48.506;9.050;2023-02-13T13:25:55;99940.97;;;13.39;54.23
13235;BME280;6683;48.506;9.050;2023-02-13T13:29:03;99939.38;;;13.05;54.98
13235;BME280;6683;48.506;9.050;2023-02-13T13:32:10;99934.56;;;12.74;55.67
13235;BME280;6683;48.506;9.050;2023-02-13T13:35:16;99938.56;;;12.53;56.07
13235;BME280;6683;48.506;9.050;2023-02-13T13:38:30;99937.94;;;12.33;56.26
13235;BME280;6683;48.506;9.050;2023-02-13T13:41:45;99938.13;;;12.14;57.04
13235;BME280;6683;48.506;9.050;2023-02-13T13:45:07;99941.47;;;11.98;57.08
13235;BME280;6683;48.506;9.050;2023-02-13T13:48:39;99943.50;;;11.87;57.56
13235;BME280;6683;48.506;9.050;2023-02-13T13:51:49;99944.06;;;11.73;57.69
13235;BME280;6683;48.506;9.050;2023-02-13T13:54:52;99937.13;;;11.62;57.89
13235;BME280;6683;48.506;9.050;2023-02-13T13:57:59;99936.63;;;11.59;58.06
13235;BME280;6683;48.506;9.050;2023-02-13T14:01:26;99941.38;;;11.55;58.28
13235;BME280;6683;48.506;9.050;2023-02-13T14:04:38;99941.16;;;11.49;58.40
13235;BME280;6683;48.506;9.050;2023-02-13T14:07:44;99936.81;;;11.48;58.49
13235;BME280;6683;48.506;9.050;2023-02-13T14:11:06;99936.31;;;11.44;58.73
13235;BME280;6683;48.506;9.050;2023-02-13T14:14:49;99932.69;;;11.45;58.54
13235;BME280;6683;48.506;9.050;2023-02-13T14:17:56;99929.03;;;11.46;58.74
13235;BME280;6683;48.506;9.050;2023-02-13T14:21:03;99931.00;;;11.44;58.62
13235;BME280;6683;48.506;9.050;2023-02-13T14:24:10;99930.03;;;11.45;58.59
13235;BME280;6683;48.506;9.050;2023-02-13T14:27:22;99926.41;;;11.46;58.79
13235;BME280;6683;48.506;9.050;2023-02-13T14:30:28;99937.22;;;11.53;58.54
13235;BME280;6683;48.506;9.050;2023-02-13T14:33:34;99932.44;;;11.56;58.51
13235;BME280;6683;48.506;9.050;2023-02-13T14:36:39;99939.09;;;11.60;58.76
13235;BME280;6683;48.506;9.050;2023-02-13T14:39:43;99928.06;;;11.65;58.33
13235;BME280;6683;48.506;9.050;2023-02-13T14:43:31;99927.22;;;11.64;58.50
13235;BME280;6683;48.506;9.050;2023-02-13T14:46:38;99930.88;;;11.63;58.43
13235;BME280;6683;48.506;9.050;2023-02-13T14:49:43;99922.66;;;11.66;58.56
13235;BME280;6683;48.506;9.050;2023-02-13T14:52:47;99919.56;;;11.71;58.52
13235;BME280;6683;48.506;9.050;2023-02-13T14:55:58;99914.94;;;11.73;58.50
13235;BME280;6683;48.506;9.050;2023-02-13T14:59:11;99916.31;;;11.77;58.18
13235;BME280;6683;48.506;9.050;2023-02-13T15:02:21;99912.53;;;11.79;58.36
13235;BME280;6683;48.506;9.050;2023-02-13T15:05:32;99908.09;;;11.80;58.35
13235;BME280;6683;48.506;9.050;2023-02-13T15:08:42;99909.59;;;11.82;58.27
13235;BME280;6683;48.506;9.050;2023-02-13T15:11:48;99908.44;;;11.85;57.97
13235;BME280;6683;48.506;9.050;2023-02-13T15:14:50;99907.31;;;11.87;57.75
13235;BME280;6683;48.506;9.050;2023-02-13T15:17:55;99914.28;;;11.88;57.74
13235;BME280;6683;48.506;9.050;2023-02-13T15:21:01;99898.41;;;11.88;58.02
13235;BME280;6683;48.506;9.050;2023-02-13T15:24:03;99907.97;;;11.89;57.77
13235;BME280;6683;48.506;9.050;2023-02-13T15:27:06;99906.19;;;11.90;57.71
13235;BME280;6683;48.506;9.050;2023-02-13T15:30:20;99905.34;;;11.89;57.76
13235;BME280;6683;48.506;9.050;2023-02-13T15:33:25;99902.00;;;11.87;57.61
13235;BME280;6683;48.506;9.050;2023-02-13T15:36:39;99897.84;;;11.85;57.78
13235;BME280;6683;48.506;9.050;2023-02-13T15:39:42;99897.03;;;11.84;57.72
13235;BME280;6683;48.506;9.050;2023-02-13T15:42:44;99893.72;;;11.82;57.41
13235;BME280;6683;48.506;9.050;2023-02-13T15:45:47;99892.19;;;11.80;57.36
13235;BME280;6683;48.506;9.050;2023-02-13T15:48:49;99903.91;;;11.77;57.39
13235;BME280;6683;48.506;9.050;2023-02-13T15:52:05;99895.59;;;11.72;57.44
13235;BME280;6683;48.506;9.050;2023-02-13T15:55:19;99897.88;;;11.67;57.15
13235;BME280;6683;48.506;9.050;2023-02-13T15:58:28;99893.84;;;11.63;57.78
13235;BME280;6683;48.506;9.050;2023-02-13T16:01:32;99893.31;;;11.60;57.48
13235;BME280;6683;48.506;9.050;2023-02-13T16:04:35;99898.06;;;11.56;57.68
13235;BME280;6683;48.506;9.050;2023-02-13T16:07:50;99893.22;;;11.52;57.70
13235;BME280;6683;48.506;9.050;2023-02-13T16:11:24;99888.69;;;11.44;57.46
13235;BME280;6683;48.506;9.050;2023-02-13T16:14:29;99897.91;;;11.40;57.34
13235;BME280;6683;48.506;9.050;2023-02-13T16:17:34;99896.84;;;11.33;57.62
13235;BME280;6683;48.506;9.050;2023-02-13T16:20:37;99900.09;;;11.27;57.42
13235;BME280;6683;48.506;9.050;2023-02-13T16:23:43;99894.72;;;11.19;57.77
13235;BME280;6683;48.506;9.050;2023-02-13T16:26:46;99897.28;;;11.11;57.50
13235;BME280;6683;48.506;9.050;2023-02-13T16:29:58;99896.63;;;10.99;57.42
13235;BME280;6683;48.506;9.050;2023-02-13T16:33:22;99904.09;;;10.86;57.53
13235;BME280;6683;48.506;9.050;2023-02-13T16:36:28;99907.06;;;10.74;57.79
13235;BME280;6683;48.506;9.050;2023-02-13T16:39:32;99911.69;;;10.62;57.86
13235;BME280;6683;48.506;9.050;2023-02-13T16:42:34;99903.97;;;10.51;57.72
13235;BME280;6683;48.506;9.050;2023-02-13T16:45:37;99908.56;;;10.39;57.84
13235;BME280;6683;48.506;9.050;2023-02-13T16:48:40;99906.25;;;10.27;57.88
13235;BME280;6683;48.506;9.050;2023-02-13T16:51:47;99910.97;;;10.14;58.24
13235;BME280;6683;48.506;9.050;2023-02-13T16:54:54;99910.97;;;10.04;57.87
13235;BME280;6683;48.506;9.050;2023-02-13T16:58:01;99917.53;;;9.91;58.18
13235;BME280;6683;48.506;9.050;2023-02-13T17:01:04;99905.31;;;9.80;58.23
13235;BME280;6683;48.506;9.050;2023-02-13T17:04:18;99915.16;;;9.68;58.48
13235;BME280;6683;48.506;9.050;2023-02-13T17:07:25;99916.28;;;9.56;58.42
13235;BME280;6683;48.506;9.050;2023-02-13T17:10:32;99925.41;;;9.43;58.30
13235;BME280;6683;48.506;9.050;2023-02-13T17:13:34;99926.50;;;9.31;58.65
13235;BME280;6683;48.506;9.050;2023-02-13T17:16:36;99931.22;;;9.18;58.73
13235;BME280;6683;48.506;9.050;2023-02-13T17:19:39;99936.44;;;9.08;58.63
13235;BME280;6683;48.506;9.050;2023-02-13T17:22:43;99939.88;;;8.99;58.94
13235;BME280;6683;48.506;9.050;2023-02-13T17:25:49;99941.78;;;8.88;58.96
13235;BME280;6683;48.506;9.050;2023-02-13T17:28:52;99947.13;;;8.76;59.04
13235;BME280;6683;48.506;9.050;2023-02-13T17:31:55;99949.72;;;8.67;59.12
13235;BME280;6683;48.506;9.050;2023-02-13T17:34:58;99961.88;;;8.58;59.26
13235;BME280;6683;48.506;9.050;2023-02-13T17:38:01;99955.75;;;8.48;59.18
13235;BME280;6683;48.506;9.050;2023-02-13T17:41:09;99955.81;;;8.37;59.50
13235;BME280;6683;48.506;9.050;2023-02-13T17:44:12;99960.19;;;8.27;59.41
13235;BME280;6683;48.506;9.050;2023-02-13T17:47:15;99961.75;;;8.19;59.33
13235;BME280;6683;48.506;9.050;2023-02-13T17:50:18;99970.38;;;8.09;59.55
13235;BME280;6683;48.506;9.050;2023-02-13T17:53:23;99969.50;;;7.99;59.62
13235;BME280;6683;48.506;9.050;2023-02-13T17:56:27;99968.44;;;7.91;59.86
13235;BME280;6683;48.506;9.050;2023-02-13T17:59:30;99971.72;;;7.83;59.95
13235;BME280;6683;48.506;9.050;2023-02-13T18:02:32;99973.44;;;7.73;60.00
13235;BME280;6683;48.506;9.050;2023-02-13T18:05:34;99974.03;;;7.66;59.86
13235;BME280;6683;48.506;9.050;2023-02-13T18:08:37;99973.00;;;7.57;59.90
13235;BME280;6683;48.506;9.050;2023-02-13T18:11:40;99976.25;;;7.50;60.02
13235;BME280;6683;48.506;9.050;2023-02-13T18:14:44;99979.50;;;7.42;60.17
13235;BME280;6683;48.506;9.050;2023-02-13T18:17:47;99981.06;;;7.34;60.38
13235;BME280;6683;48.506;9.050;2023-02-13T18:20:56;99986.19;;;7.24;60.44
13235;BME280;6683;48.506;9.050;2023-02-13T18:24:01;99977.16;;;7.17;60.00
13235;BME280;6683;48.506;9.050;2023-02-13T18:27:06;99980.63;;;7.06;60.15
13235;BME280;6683;48.506;9.050;2023-02-13T18:30:12;99986.59;;;6.97;60.43
13235;BME280;6683;48.506;9.050;2023-02-13T18:33:15;99979.56;;;6.87;60.16
13235;BME280;6683;48.506;9.050;2023-02-13T18:36:17;99988.16;;;6.78;60.47
13235;BME280;6683;48.506;9.050;2023-02-13T18:39:19;99985.50;;;6.67;60.37
13235;BME280;6683;48.506;9.050;2023-02-13T18:42:23;99981.09;;;6.56;60.58
13235;BME280;6683;48.506;9.050;2023-02-13T18:45:25;99989.66;;;6.47;60.26
13235;BME280;6683;48.506;9.050;2023-02-13T18:48:27;99986.91;;;6.37;60.50
13235;BME280;6683;48.506;9.050;2023-02-13T18:51:30;100001.66;;;6.27;60.62
13235;BME280;6683;48.506;9.050;2023-02-13T18:54:33;99996.97;;;6.20;60.75
13235;BME280;6683;48.506;9.050;2023-02-13T18:57:38;100001.25;;;6.10;60.73
13235;BME280;6683;48.506;9.050;2023-02-13T19:00:43;100004.44;;;6.02;60.49
13235;BME280;6683;48.506;9.050;2023-02-13T19:03:46;100002.38;;;5.95;60.61
13235;BME280;6683;48.506;9.050;2023-02-13T19:06:49;100009.97;;;5.87;60.54
13235;BME280;6683;48.506;9.050;2023-02-13T19:09:51;100013.97;;;5.80;60.90
13235;BME280;6683;48.506;9.050;2023-02-13T19:12:55;100018.81;;;5.73;61.44
13235;BME280;6683;48.506;9.050;2023-02-13T19:16:03;100017.69;;;5.64;60.86
13235;BME280;6683;48.506;9.050;2023-02-13T19:19:07;100007.66;;;5.58;61.05
13235;BME280;6683;48.506;9.050;2023-02-13T19:22:09;100002.88;;;5.52;61.08
13235;BME280;6683;48.506;9.050;2023-02-13T19:25:12;100009.38;;;5.47;60.89
13235;BME280;6683;48.506;9.050;2023-02-13T19:28:15;100010.78;;;5.40;61.12
13235;BME280;6683;48.506;9.050;2023-02-13T19:31:19;100006.06;;;5.32;61.25
13235;BME280;6683;48.506;9.050;2023-02-13T19:34:22;100011.75;;;5.26;61.13
13235;BME280;6683;48.506;9.050;2023-02-13T19:37:24;100004.31;;;5.20;61.64
13235;BME280;6683;48.506;9.050;2023-02-13T19:40:26;99997.84;;;5.13;61.58
13235;BME280;6683;48.506;9.050;2023-02-13T19:43:30;100005.91;;;5.10;61.35
13235;BME280;6683;48.506;9.050;2023-02-13T19:46:32;100008.84;;;5.06;62.18
13235;BME280;6683;48.506;9.050;2023-02-13T19:49:35;99999.66;;;5.00;61.79
13235;BME280;6683;48.506;9.050;2023-02-13T19:52:40;99998.41;;;4.93;61.50
13235;BME280;6683;48.506;9.050;2023-02-13T19:55:43;99995.28;;;4.88;61.78
13235;BME280;6683;48.506;9.050;2023-02-13T19:58:47;99998.31;;;4.82;61.45
13235;BME280;6683;48.506;9.050;2023-02-13T20:01:49;100011.00;;;4.75;61.86
13235;BME280;6683;48.506;9.050;2023-02-13T20:04:51;100001.66;;;4.71;61.93
13235;BME280;6683;48.506;9.050;2023-02-13T20:07:53;100000.31;;;4.66;61.99
13235;BME280;6683;48.506;9.050;2023-02-13T20:10:56;100005.97;;;4.60;61.53
13235;BME280;6683;48.506;9.050;2023-02-13T20:14:00;100013.38;;;4.53;62.09
13235;BME280;6683;48.506;9.050;2023-02-13T20:17:05;100009.63;;;4.45;61.49
13235;BME280;6683;48.506;9.050;2023-02-13T20:20:08;100007.53;;;4.37;62.35
13235;BME280;6683;48.506;9.050;2023-02-13T20:23:11;100012.31;;;4.31;61.65
13235;BME280;6683;48.506;9.050;2023-02-13T20:26:17;100008.34;;;4.25;62.26
13235;BME280;6683;48.506;9.050;2023-02-13T20:29:20;100005.31;;;4.19;62.23
13235;BME280;6683;48.506;9.050;2023-02-13T20:32:22;99999.66;;;4.12;62.11
13235;BME280;6683;48.506;9.050;2023-02-13T20:35:25;100004.44;;;4.05;62.40
13235;BME280;6683;48.506;9.050;2023-02-13T20:38:27;100004.00;;;3.99;62.46
13235;BME280;6683;48.506;9.050;2023-02-13T20:41:31;100008.72;;;3.94;62.30
13235;BME280;6683;48.506;9.050;2023-02-13T20:44:36;100014.22;;;3.89;62.22
13235;BME280;6683;48.506;9.050;2023-02-13T20:47:38;100013.56;;;3.86;62.44
13235;BME280;6683;48.506;9.050;2023-02-13T20:50:42;100017.53;;;3.79;62.35
13235;BME280;6683;48.506;9.050;2023-02-13T20:53:46;100010.41;;;3.68;62.21
13235;BME280;6683;48.506;9.050;2023-02-13T20:56:48;100010.69;;;3.64;62.31
13235;BME280;6683;48.506;9.050;2023-02-13T20:59:52;100019.94;;;3.55;62.18
13235;BME280;6683;48.506;9.050;2023-02-13T21:02:55;100015.00;;;3.51;62.58
13235;BME280;6683;48.506;9.050;2023-02-13T21:05:57;100016.25;;;3.45;62.21
13235;BME280;6683;48.506;9.050;2023-02-13T21:09:00;100016.53;;;3.41;62.53
13235;BME280;6683;48.506;9.050;2023-02-13T21:12:03;100012.34;;;3.38;62.89
13235;BME280;6683;48.506;9.050;2023-02-13T21:15:08;100008.97;;;3.36;62.58
13235;BME280;6683;48.506;9.050;2023-02-13T21:18:11;100010.97;;;3.33;62.73
13235;BME280;6683;48.506;9.050;2023-02-13T21:21:14;100009.38;;;3.30;62.57
13235;BME280;6683;48.506;9.050;2023-02-13T21:24:19;100000.06;;;3.26;62.71
13235;BME280;6683;48.506;9.050;2023-02-13T21:27:22;99998.41;;;3.25;62.91
13235;BME280;6683;48.506;9.050;2023-02-13T21:30:26;100002.03;;;3.22;63.28
13235;BME280;6683;48.506;9.050;2023-02-13T21:33:28;100007.38;;;3.21;62.93
13235;BME280;6683;48.506;9.050;2023-02-13T21:36:35;100006.69;;;3.17;63.33
13235;BME280;6683;48.506;9.050;2023-02-13T21:39:38;100001.59;;;3.16;62.98
13235;BME280;6683;48.506;9.050;2023-02-13T21:42:40;99995.63;;;3.14;63.43
13235;BME280;6683;48.506;9.050;2023-02-13T21:45:44;99995.00;;;3.10;63.18
13235;BME280;6683;48.506;9.050;2023-02-13T21:48:49;99989.03;;;3.08;63.38
13235;BME280;6683;48.506;9.050;2023-02-13T21:51:53;99989.31;;;3.04;63.30
13235;BME280;6683;48.506;9.050;2023-02-13T21:54:55;99984.47;;;2.98;63.18
13235;BME280;6683;48.506;9.050;2023-02-13T21:57:58;99983.16;;;2.91;62.92
13235;BME280;6683;48.506;9.050;2023-02-13T22:01:09;99977.59;;;2.83;63.25
13235;BME280;6683;48.506;9.050;2023-02-13T22:04:12;99974.41;;;2.78;63.21
13235;BME280;6683;48.506;9.050;2023-02-13T22:07:15;99985.97;;;2.74;63.33
13235;BME280;6683;48.506;9.050;2023-02-13T22:10:18;99991.38;;;2.71;63.37
13235;BME280;6683;48.506;9.050;2023-02-13T22:13:20;99988.94;;;2.68;63.06